Paraburdoo, Western Australia

3:29 AM WST on August 24, 2014 (GMT +0800)
Paraburdoo | Change Station
CLOSE
Current Station
Airport
Location: Paraburdoo Airport,
Elevation: 1404 ft
Nearby Weather Stations

Elev 1404 ft 23.17 °S, 117.75 °E | Updated 29 minutes ago

Clear
Clear
55 °F
Feels Like 55 °F
N
6
Wind Variable Wind from East

Today
High -- | Low -- °F
--% Chance of Precip.
Yesterday
High -- | Low -- °F
Precip. -- in
6:27 AM 5:55 PM
Waning Crescent, 3% visible
Pressure 30.15 in
Visibility 6.2 miles
Clouds
Dew Point 21 °F
Humidity 26%
Rainfall 0.00 in
Snow Depth Not available.
UV Not available.
Pollen Not available.
Air Quality Not available.
Flu Activity Not available.
METAR YPBO 231900Z AUTO 10005KT 9999 // NCD 13/M06 Q1021

More Conditions Fewer Conditions

Pressure 30.15 in
Visibility 6.2 miles
Clouds
Dew Point 21 °F
Humidity 26%
Rainfall 0.00 in
Snow Depth Not available.
UV Not available.
Pollen Not available.
Air Quality Not available.
Flu Activity Not available.
METAR YPBO 231900Z AUTO 10005KT 9999 // NCD 13/M06 Q1021

More Conditions Fewer Conditions

10-Day Weather Forecast

Almanac

Astronomy

Aug. 24, 2014 Rise Set
Actual Time 6:27 AM WST 5:55 PM WST
Civil Twilight 6:04 AM WST 6:18 PM WST
Nautical Twilight 5:38 AM WST 6:45 PM WST
Astronomical Twilight 5:11 AM WST 7:11 PM WST
Moon 5:15 AM WST (8/24) 4:54 PM WST (8/24)
Length of Visible Light 12h 14m
Length of Day
11h 28m
Tomorrow will be 1m 12s longer.
Waning Crescent, 3% of the Moon is Illuminated
Aug 23
Waning Crescent
Aug 25
New
Sep 2
First Quarter
Sep 8
Full
Sep 15
Last Quarter

Yesterday's Extremes

Country Highs Country Lows

Community

WunderPhotos

Upload Photos

1,746,583 photos uploaded!

WunderBlogs® & News

Nearby

Snow Depth

Not available.

Earthquake Activity

City Distance Mag. Time & Date
No recent earthquake activity has been reported nearby.
Minimum magnitude displayed is 2.5.

Coastal Water Temperatures

Place Temperature
No Stations Reporting

Nearby Weather Stations